Carolina, PR (00988)

12:41 PM AST on August 31, 2015 (GMT -0400)
Ciudad Jardin | | Change Station
CLOSE
Current Station
Personal Weather Station
Location: Carolina, PR
Elevation: 10 ft
Nearby Weather Stations

Elev 10 ft 18.37 °N, 65.93 °W | Updated 14 minutes ago

Scattered Clouds
Scattered Clouds
88.8 °F
Feels Like 105 °F
N
5.0
Wind Variable Wind from NE
Gusts 14.0 mph

Today
High -- | Low -- °F
--% Chance of Precip.
Yesterday
High -- | Low -- °F
Precip. -- in
6:09 AM 6:39 PM
Waning Gibbous, 94% visible
Pressure 30.05 in
Visibility 10.0 miles
Clouds Few 2500 ft
Scattered Clouds 7000 ft
Heat Index 105 °F
Dew Point 80 °F
Humidity 74%
Rainfall 0.00 in
Snow Depth Not available.
UV 10 out of 12
Pollen Not available.
Air Quality Not available.
Flu Activity Not available.
METAR TJSJ 311556Z 06014KT 10SM FEW025 SCT070 31/25 A3005 RMK AO2 SLP175 T03110250
Pressure 30.05 in
Visibility 10.0 miles
Clouds Few 2500 ft
Scattered Clouds 7000 ft
Heat Index 105 °F
Dew Point 80 °F
Humidity 74%
Rainfall 0.00 in
Snow Depth Not available.
UV 10 out of 12
Pollen Not available.
Air Quality Not available.
Flu Activity Not available.
METAR TJSJ 311556Z 06014KT 10SM FEW025 SCT070 31/25 A3005 RMK AO2 SLP175 T03110250

10-Day Weather Forecast

×

Almanac

Astronomy

Aug. 31, 2015 Rise Set
Actual Time
Civil Twilight
Nautical Twilight
Astronomical Twilight
Moon
Length of Visible Light
Length of Day
Tomorrow will be .
, % of the Moon is Illuminated

Today's Extremes

State Highs State Lows

Community

WunderPhotos

Upload Photos

1,851,307 photos uploaded!

WunderBlogs® & News

Nearby

Air Quality

  Air Quality AQ Index Pollutant
Not available.

Snow Depth

Station Depth Elevation

Earthquake Activity

City Distance Mag. Time & Date
Minimum magnitude displayed is 2.5.

Coastal Water Temperatures

Place Temperature

Stations

Nearby Weather Stations

Station Location Temp. Windchill Dew Point Humidity Wind Precip. Elev Updated Type